Time;durP1;ratioP1;P1;durP2;ratioP2;P2;SDS_P1;SDS_P2;PMS_P1;PMS_P2;Temp;Humidity;BMP_temperature;BMP_pressure;BME280_temperature;BME280_humidity;BME280_pressure;Samples;Min_cycle;Max_cycle;Signal;HPM_P1;HPM_P2
2022/10/09 00:01:39;;;;;;;3.00;1.00;;;;;;;;;;5090296;28;20213;-65
2022/10/09 00:04:06;;;;;;;4.97;1.20;;;;;;;;;;5090437;28;20177;-65
2022/10/09 00:06:33;;;;;;;3.27;1.00;;;;;;;;;;5090537;28;20193;-65
2022/10/09 00:09:00;;;;;;;3.53;1.17;;;;;;;;;;5090790;28;20608;-65
2022/10/09 00:11:27;;;;;;;3.83;1.23;;;;;;;;;;5072464;28;20189;-65
2022/10/09 00:13:55;;;;;;;2.50;1.10;;;;;;;;;;5090429;28;20203;-65
2022/10/09 00:16:21;;;;;;;5.07;1.40;;;;;;;;;;5090336;28;20193;-65
2022/10/09 00:19:06;;;;;;;2.87;1.07;;;;;;;;;;5094741;28;20257;-66
2022/10/09 00:21:33;;;;;;;3.00;1.20;;;;;;;;;;5110445;28;20540;-65
2022/10/09 00:24:17;;;;;;;2.57;1.30;;;;;;;;;;5095056;28;20179;-65
2022/10/09 00:26:45;;;;;;;2.73;1.20;;;;;;;;;;5110568;28;20211;-65
2022/10/09 00:29:12;;;;;;;2.67;1.50;;;;;;;;;;5110747;28;20230;-65
2022/10/09 00:31:39;;;;;;;2.90;1.10;;;;;;;;;;5110189;28;20184;-65
2022/10/09 00:34:05;;;;;;;2.33;1.23;;;;;;;;;;5098348;28;20309;-65
2022/10/09 00:36:32;;;;;;;4.97;1.47;;;;;;;;;;5092604;28;20266;-65
2022/10/09 00:38:59;;;;;;;4.33;1.40;;;;;;;;;;5110621;28;20736;-65
2022/10/09 00:41:27;;;;;;;2.90;1.30;;;;;;;;;;5110060;28;20255;-65
2022/10/09 00:44:30;;;;;;;4.67;1.17;;;;;;;;;;5095107;28;20167;-65
2022/10/09 00:46:57;;;;;;;2.87;1.20;;;;;;;;;;5110042;28;20188;-65
2022/10/09 00:49:27;;;;;;;2.70;1.17;;;;;;;;;;5092112;28;20234;-65
2022/10/09 00:51:54;;;;;;;4.50;1.20;;;;;;;;;;5109881;28;20224;-65
2022/10/09 00:54:21;;;;;;;2.80;1.07;;;;;;;;;;5110157;28;20169;-65
2022/10/09 00:56:48;;;;;;;2.10;1.20;;;;;;;;;;5105425;28;20197;-64
2022/10/09 00:59:15;;;;;;;3.23;1.00;;;;;;;;;;5072063;28;20242;-67
2022/10/09 01:01:41;;;;;;;2.90;1.20;;;;;;;;;;5071524;28;20747;-65
2022/10/09 01:04:08;;;;;;;3.13;1.00;;;;;;;;;;5089431;28;20193;-65
2022/10/09 01:06:41;;;;;;;3.30;1.57;;;;;;;;;;5089448;28;20190;-65
2022/10/09 01:09:11;;;;;;;2.87;0.90;;;;;;;;;;5089311;28;20275;-66
2022/10/09 01:11:48;;;;;;;4.00;1.00;;;;;;;;;;5089978;28;20582;-65
2022/10/09 01:14:15;;;;;;;2.00;0.80;;;;;;;;;;5089688;28;20783;-65
2022/10/09 01:16:47;;;;;;;2.23;0.97;;;;;;;;;;5093163;28;20181;-65
2022/10/09 01:19:19;;;;;;;3.03;1.37;;;;;;;;;;5091874;28;20189;-65
2022/10/09 01:21:51;;;;;;;2.40;1.03;;;;;;;;;;5091108;28;20210;-65
2022/10/09 01:24:33;;;;;;;3.77;1.20;;;;;;;;;;5091720;28;20184;-65
2022/10/09 01:27:09;;;;;;;2.30;1.20;;;;;;;;;;5110075;28;20218;-65
2022/10/09 01:29:49;;;;;;;3.13;1.10;;;;;;;;;;5109979;28;20252;-65
2022/10/09 01:32:17;;;;;;;2.93;1.13;;;;;;;;;;5091637;28;20204;-66
2022/10/09 01:34:44;;;;;;;3.57;1.17;;;;;;;;;;5088545;28;20230;-65
2022/10/09 01:37:12;;;;;;;3.73;1.40;;;;;;;;;;5100798;28;20273;-65
2022/10/09 01:39:56;;;;;;;2.97;1.10;;;;;;;;;;5098455;28;20542;-65
2022/10/09 01:42:23;;;;;;;4.63;1.40;;;;;;;;;;5095710;28;20204;-65
2022/10/09 01:45:07;;;;;;;5.27;1.07;;;;;;;;;;5097944;28;20683;-65
2022/10/09 01:47:34;;;;;;;5.33;1.40;;;;;;;;;;5114088;28;20535;-65
2022/10/09 01:50:19;;;;;;;3.40;1.23;;;;;;;;;;5113614;28;20593;-65
2022/10/09 01:52:50;;;;;;;3.67;1.33;;;;;;;;;;5100876;28;20282;-66
2022/10/09 01:55:40;;;;;;;5.03;1.10;;;;;;;;;;5092967;28;20639;-65
2022/10/09 01:58:10;;;;;;;3.67;1.60;;;;;;;;;;5074835;28;20181;-65
2022/10/09 02:00:38;;;;;;;4.13;1.13;;;;;;;;;;5058249;28;20682;-65
2022/10/09 02:03:06;;;;;;;3.20;1.27;;;;;;;;;;5074878;28;20217;-65
2022/10/09 02:05:32;;;;;;;3.60;1.20;;;;;;;;;;5075371;28;20656;-67
2022/10/09 02:07:59;;;;;;;4.83;1.23;;;;;;;;;;5092868;28;20185;-65
2022/10/09 02:10:26;;;;;;;5.70;1.30;;;;;;;;;;5092385;28;20193;-65
2022/10/09 02:12:53;;;;;;;4.67;1.23;;;;;;;;;;5075010;28;20212;-65
2022/10/09 02:15:20;;;;;;;1.90;1.00;;;;;;;;;;5092679;28;20189;-65
2022/10/09 02:17:47;;;;;;;3.90;1.20;;;;;;;;;;5074866;28;20189;-65
2022/10/09 02:20:18;;;;;;;3.20;1.40;;;;;;;;;;5092702;28;20201;-65
2022/10/09 02:22:44;;;;;;;5.80;1.60;;;;;;;;;;5092062;28;20213;-65
2022/10/09 02:25:11;;;;;;;4.30;1.40;;;;;;;;;;5074907;28;20189;-65
2022/10/09 02:27:38;;;;;;;3.67;1.40;;;;;;;;;;5092468;28;20193;-65
2022/10/09 02:30:06;;;;;;;3.50;1.40;;;;;;;;;;5074459;28;20178;-65
2022/10/09 02:32:32;;;;;;;4.13;1.30;;;;;;;;;;5092739;28;20284;-65
2022/10/09 02:34:59;;;;;;;5.47;1.27;;;;;;;;;;5109753;28;20189;-65
2022/10/09 02:37:26;;;;;;;5.63;1.40;;;;;;;;;;5112106;28;20228;-65
2022/10/09 02:39:52;;;;;;;4.03;1.20;;;;;;;;;;5112681;28;20185;-65
2022/10/09 02:42:19;;;;;;;5.17;1.63;;;;;;;;;;5112427;28;20227;-65
2022/10/09 02:44:46;;;;;;;4.63;1.50;;;;;;;;;;5112499;28;20181;-65
2022/10/09 02:47:12;;;;;;;3.83;1.17;;;;;;;;;;5112408;28;20199;-65
2022/10/09 02:49:39;;;;;;;4.37;1.37;;;;;;;;;;5112186;28;20188;-65
2022/10/09 02:52:06;;;;;;;3.20;1.40;;;;;;;;;;5110670;28;20192;-65
2022/10/09 02:54:33;;;;;;;4.43;1.37;;;;;;;;;;5112247;28;20633;-65
2022/10/09 02:57:00;;;;;;;4.77;1.70;;;;;;;;;;5112729;28;20592;-65
2022/10/09 02:59:26;;;;;;;2.87;1.37;;;;;;;;;;5112086;28;20574;-65
2022/10/09 03:01:54;;;;;;;4.03;1.20;;;;;;;;;;5094195;28;20235;-65
2022/10/09 03:04:21;;;;;;;5.53;1.80;;;;;;;;;;5111939;28;20659;-65
2022/10/09 03:06:48;;;;;;;3.60;1.47;;;;;;;;;;5106569;28;20189;-65
2022/10/09 03:09:14;;;;;;;4.33;1.37;;;;;;;;;;5091668;28;20537;-65
2022/10/09 03:11:41;;;;;;;6.27;1.80;;;;;;;;;;5092144;28;20243;-65
2022/10/09 03:14:08;;;;;;;4.60;1.60;;;;;;;;;;5091278;28;20247;-65
2022/10/09 03:16:34;;;;;;;4.67;2.00;;;;;;;;;;5091601;28;20660;-65
2022/10/09 03:19:01;;;;;;;2.60;1.60;;;;;;;;;;5091546;28;20225;-65
2022/10/09 03:21:28;;;;;;;5.13;1.83;;;;;;;;;;5091142;28;20270;-65
2022/10/09 03:23:54;;;;;;;5.43;1.60;;;;;;;;;;5091571;28;20274;-65
2022/10/09 03:26:22;;;;;;;4.60;1.87;;;;;;;;;;5091555;28;20190;-65
2022/10/09 03:28:49;;;;;;;5.03;1.77;;;;;;;;;;5091128;28;20193;-65
2022/10/09 03:31:16;;;;;;;7.33;1.87;;;;;;;;;;5091339;28;20186;-65
2022/10/09 03:34:03;;;;;;;4.70;1.80;;;;;;;;;;5091131;28;20181;-65
2022/10/09 03:36:29;;;;;;;4.53;2.00;;;;;;;;;;5093205;28;20174;-65
2022/10/09 03:38:56;;;;;;;6.37;2.43;;;;;;;;;;5111827;28;20245;-65
2022/10/09 03:41:23;;;;;;;4.40;2.13;;;;;;;;;;5111399;28;20189;-65
2022/10/09 03:43:49;;;;;;;2.57;2.13;;;;;;;;;;5111234;28;20292;-65
2022/10/09 03:46:16;;;;;;;5.33;2.20;;;;;;;;;;5111262;28;20254;-65
2022/10/09 03:48:43;;;;;;;5.03;2.30;;;;;;;;;;5111363;28;20193;-65
2022/10/09 03:51:10;;;;;;;6.07;2.13;;;;;;;;;;5092595;28;20242;-65
2022/10/09 03:53:36;;;;;;;6.03;2.27;;;;;;;;;;5091150;28;20217;-65
2022/10/09 03:56:03;;;;;;;4.50;2.00;;;;;;;;;;5090682;28;20177;-66
2022/10/09 03:58:30;;;;;;;6.47;2.10;;;;;;;;;;5089944;28;20556;-65
2022/10/09 04:00:56;;;;;;;7.30;2.60;;;;;;;;;;5090918;28;20544;-65
2022/10/09 04:03:23;;;;;;;5.80;2.33;;;;;;;;;;5090517;28;20209;-65
2022/10/09 04:05:50;;;;;;;12.13;3.00;;;;;;;;;;5090176;28;20193;-65
2022/10/09 04:08:16;;;;;;;2.80;2.00;;;;;;;;;;5090682;28;20235;-65
2022/10/09 04:10:43;;;;;;;5.50;1.93;;;;;;;;;;5090320;28;20186;-65
2022/10/09 04:13:10;;;;;;;8.30;2.57;;;;;;;;;;5090221;28;20246;-65
2022/10/09 04:15:37;;;;;;;8.93;2.67;;;;;;;;;;5090395;28;20242;-65
2022/10/09 04:18:04;;;;;;;5.67;2.17;;;;;;;;;;5090659;28;20185;-65
2022/10/09 04:20:31;;;;;;;6.20;2.30;;;;;;;;;;5090226;28;20652;-65
2022/10/09 04:22:57;;;;;;;4.00;2.30;;;;;;;;;;5090286;28;20243;-65
2022/10/09 04:25:24;;;;;;;4.77;2.13;;;;;;;;;;5089866;28;20189;-65
2022/10/09 04:27:51;;;;;;;4.13;1.90;;;;;;;;;;5090116;28;20268;-65
2022/10/09 04:30:17;;;;;;;4.23;2.10;;;;;;;;;;5090215;28;20196;-65
2022/10/09 04:32:46;;;;;;;5.60;2.00;;;;;;;;;;5090447;28;20254;-67
2022/10/09 04:35:14;;;;;;;4.73;2.00;;;;;;;;;;5110165;28;20185;-65
2022/10/09 04:37:41;;;;;;;5.80;2.20;;;;;;;;;;5110295;28;20228;-65
2022/10/09 04:40:08;;;;;;;4.83;2.10;;;;;;;;;;5110259;28;20598;-65
2022/10/09 04:42:34;;;;;;;6.17;1.90;;;;;;;;;;5110301;28;20223;-65
2022/10/09 04:45:01;;;;;;;6.77;2.10;;;;;;;;;;5110583;28;20533;-65
2022/10/09 04:47:28;;;;;;;5.60;2.07;;;;;;;;;;5102913;28;20189;-62
2022/10/09 04:49:54;;;;;;;5.70;1.80;;;;;;;;;;5089709;28;20949;-65
2022/10/09 04:52:21;;;;;;;5.50;1.70;;;;;;;;;;5096734;28;20220;-65
2022/10/09 04:54:48;;;;;;;4.83;1.80;;;;;;;;;;5109354;28;20195;-65
2022/10/09 04:57:15;;;;;;;3.40;2.13;;;;;;;;;;5110232;28;20648;-65
2022/10/09 04:59:41;;;;;;;4.80;1.83;;;;;;;;;;5110365;28;20185;-66
2022/10/09 05:02:08;;;;;;;5.93;1.73;;;;;;;;;;5109881;28;20188;-64
2022/10/09 05:04:35;;;;;;;3.73;1.80;;;;;;;;;;5094139;28;20273;-63
2022/10/09 05:07:02;;;;;;;4.60;1.70;;;;;;;;;;5089711;28;20180;-64
2022/10/09 05:09:29;;;;;;;2.60;1.50;;;;;;;;;;5089648;28;20200;-65
2022/10/09 05:11:56;;;;;;;3.17;1.77;;;;;;;;;;5089115;28;20683;-65
2022/10/09 05:14:22;;;;;;;6.67;1.63;;;;;;;;;;5089703;28;20194;-64
2022/10/09 05:16:50;;;;;;;4.37;1.90;;;;;;;;;;5089490;28;20213;-65
2022/10/09 05:19:37;;;;;;;3.93;1.77;;;;;;;;;;5088240;28;20270;-65
2022/10/09 05:22:04;;;;;;;5.07;1.73;;;;;;;;;;5089302;28;20193;-65
2022/10/09 05:24:49;;;;;;;4.67;1.70;;;;;;;;;;5089437;28;20213;-65
2022/10/09 05:27:15;;;;;;;6.03;2.03;;;;;;;;;;5094131;28;20193;-65
2022/10/09 05:29:42;;;;;;;9.10;1.80;;;;;;;;;;5071185;28;20186;-65
2022/10/09 05:32:09;;;;;;;6.70;1.83;;;;;;;;;;5089320;28;20185;-65
2022/10/09 05:34:36;;;;;;;6.40;1.63;;;;;;;;;;5099066;28;20184;-65
2022/10/09 05:37:02;;;;;;;6.97;1.97;;;;;;;;;;5105320;28;20274;-65
2022/10/09 05:39:31;;;;;;;6.53;2.20;;;;;;;;;;5108972;28;20237;-65
2022/10/09 05:41:57;;;;;;;4.53;2.00;;;;;;;;;;5110228;28;20188;-65
2022/10/09 05:44:24;;;;;;;5.17;2.40;;;;;;;;;;5108786;28;20687;-65
2022/10/09 05:46:51;;;;;;;4.70;2.13;;;;;;;;;;5109690;28;20528;-65
2022/10/09 05:49:17;;;;;;;4.30;2.10;;;;;;;;;;5101560;28;20558;-65
2022/10/09 05:51:44;;;;;;;6.47;2.57;;;;;;;;;;5107673;28;20184;-65
2022/10/09 05:54:12;;;;;;;10.13;2.47;;;;;;;;;;5108466;28;20193;-65
2022/10/09 05:56:38;;;;;;;7.93;2.73;;;;;;;;;;5108310;28;20617;-65
2022/10/09 05:59:06;;;;;;;7.93;2.30;;;;;;;;;;5106764;28;20193;-65
2022/10/09 06:01:33;;;;;;;5.67;2.60;;;;;;;;;;5090370;28;20517;-65
2022/10/09 06:04:00;;;;;;;6.77;2.70;;;;;;;;;;5108415;28;20216;-65
2022/10/09 06:06:28;;;;;;;8.30;2.43;;;;;;;;;;5108840;28;20238;-65
2022/10/09 06:08:55;;;;;;;6.30;2.40;;;;;;;;;;5107601;28;20201;-65
2022/10/09 06:11:23;;;;;;;5.17;2.27;;;;;;;;;;5108103;28;20181;-65
2022/10/09 06:13:50;;;;;;;8.47;2.57;;;;;;;;;;5108339;28;20215;-65
2022/10/09 06:16:16;;;;;;;10.20;2.77;;;;;;;;;;5108002;28;20211;-64
2022/10/09 06:18:45;;;;;;;7.90;2.20;;;;;;;;;;5097622;28;20186;-64
2022/10/09 06:21:15;;;;;;;7.30;1.93;;;;;;;;;;5106849;28;20189;-65
2022/10/09 06:23:41;;;;;;;5.80;1.90;;;;;;;;;;5109794;28;20212;-66
2022/10/09 06:26:10;;;;;;;7.17;1.93;;;;;;;;;;5112199;28;20196;-65
2022/10/09 06:28:37;;;;;;;3.03;1.70;;;;;;;;;;5091520;28;20178;-65
2022/10/09 06:31:05;;;;;;;4.83;1.70;;;;;;;;;;5112531;28;20197;-65
2022/10/09 06:33:32;;;;;;;5.70;1.73;;;;;;;;;;5098274;28;20181;-65
2022/10/09 06:36:02;;;;;;;5.03;1.70;;;;;;;;;;5093704;28;20193;-65
2022/10/09 06:38:36;;;;;;;4.83;1.67;;;;;;;;;;5100112;28;20203;-66
2022/10/09 06:41:09;;;;;;;5.60;1.90;;;;;;;;;;5108090;28;20239;-65
2022/10/09 06:43:36;;;;;;;9.73;1.73;;;;;;;;;;5090947;28;20309;-66
2022/10/09 06:46:03;;;;;;;5.80;2.00;;;;;;;;;;5093830;28;20626;-66
2022/10/09 06:48:31;;;;;;;6.13;1.73;;;;;;;;;;5110312;28;20199;-65
2022/10/09 06:51:04;;;;;;;7.47;1.70;;;;;;;;;;5108184;27;20185;-66
2022/10/09 06:53:49;;;;;;;6.43;1.60;;;;;;;;;;5113928;28;20180;-66
2022/10/09 06:56:16;;;;;;;7.57;1.93;;;;;;;;;;5108212;28;20241;-66
2022/10/09 06:59:01;;;;;;;5.13;1.30;;;;;;;;;;5113923;28;20250;-66
2022/10/09 07:01:31;;;;;;;3.10;1.10;;;;;;;;;;5113629;28;20188;-65
2022/10/09 07:03:59;;;;;;;7.00;1.30;;;;;;;;;;5114377;28;20201;-65
2022/10/09 07:06:26;;;;;;;4.40;1.57;;;;;;;;;;5108830;28;20301;-65
2022/10/09 07:08:55;;;;;;;5.00;1.53;;;;;;;;;;5100937;28;20651;-66
2022/10/09 07:11:23;;;;;;;4.47;1.20;;;;;;;;;;5106293;28;20189;-65
2022/10/09 07:13:51;;;;;;;4.50;1.37;;;;;;;;;;5100133;28;20200;-65
2022/10/09 07:16:28;;;;;;;5.70;1.30;;;;;;;;;;5095966;28;20212;-66
2022/10/09 07:18:55;;;;;;;5.97;1.87;;;;;;;;;;5101099;28;20722;-66
2022/10/09 07:21:22;;;;;;;4.30;1.23;;;;;;;;;;5116836;27;20189;-66
2022/10/09 07:23:49;;;;;;;6.47;1.70;;;;;;;;;;5113629;28;20235;-66
2022/10/09 07:26:17;;;;;;;3.80;1.37;;;;;;;;;;5095471;28;20207;-66
2022/10/09 07:28:44;;;;;;;3.37;1.07;;;;;;;;;;5101767;28;20593;-66
2022/10/09 07:31:11;;;;;;;4.13;1.40;;;;;;;;;;5092205;28;20192;-66
2022/10/09 07:33:40;;;;;;;5.20;1.40;;;;;;;;;;5093182;27;20189;-66
2022/10/09 07:36:07;;;;;;;2.27;0.70;;;;;;;;;;5103683;28;20316;-66
2022/10/09 07:38:34;;;;;;;6.40;1.20;;;;;;;;;;5089327;28;20833;-66
2022/10/09 07:41:05;;;;;;;5.93;1.27;;;;;;;;;;5082493;28;20190;-66
2022/10/09 07:43:33;;;;;;;3.63;1.00;;;;;;;;;;5076210;28;20201;-66
2022/10/09 07:46:00;;;;;;;5.00;1.17;;;;;;;;;;5065109;28;20664;-66
2022/10/09 07:48:28;;;;;;;2.80;1.10;;;;;;;;;;5069434;28;20541;-66
2022/10/09 07:50:55;;;;;;;4.23;1.30;;;;;;;;;;5084271;28;20251;-66
2022/10/09 07:53:22;;;;;;;5.87;1.33;;;;;;;;;;5078459;28;20562;-66
2022/10/09 07:55:48;;;;;;;3.27;0.93;;;;;;;;;;5091963;28;20196;-66
2022/10/09 07:58:15;;;;;;;4.17;1.03;;;;;;;;;;5090783;28;20200;-67
2022/10/09 08:00:42;;;;;;;3.70;0.90;;;;;;;;;;5084610;28;20193;-65
2022/10/09 08:03:11;;;;;;;5.43;1.37;;;;;;;;;;5075700;28;20303;-65
2022/10/09 08:05:38;;;;;;;5.93;1.43;;;;;;;;;;5088266;28;20186;-65
2022/10/09 08:08:05;;;;;;;9.97;1.67;;;;;;;;;;5090412;28;20193;-66
2022/10/09 08:10:31;;;;;;;2.40;0.90;;;;;;;;;;5058653;28;20662;-66
2022/10/09 08:12:58;;;;;;;3.77;1.13;;;;;;;;;;5086772;28;20664;-66
2022/10/09 08:15:25;;;;;;;3.90;1.10;;;;;;;;;;5088087;28;20219;-66
2022/10/09 08:17:52;;;;;;;9.93;1.47;;;;;;;;;;5085562;28;20794;-66
2022/10/09 08:20:20;;;;;;;3.93;1.20;;;;;;;;;;5080855;28;20201;-60
2022/10/09 08:22:46;;;;;;;5.50;1.30;;;;;;;;;;5061228;28;20194;-66
2022/10/09 08:25:35;;;;;;;2.40;1.00;;;;;;;;;;5085808;28;20185;-65
2022/10/09 08:28:02;;;;;;;3.50;1.23;;;;;;;;;;5074289;28;20826;-66
2022/10/09 08:30:29;;;;;;;6.10;1.40;;;;;;;;;;5075534;28;20213;-66
2022/10/09 08:32:56;;;;;;;4.97;1.40;;;;;;;;;;5075761;28;20391;-67
2022/10/09 08:35:23;;;;;;;2.83;0.83;;;;;;;;;;5061618;28;20240;-68
2022/10/09 08:38:08;;;;;;;3.43;0.90;;;;;;;;;;5074554;28;20220;-66
2022/10/09 08:41:00;;;;;;;4.13;1.03;;;;;;;;;;5081604;28;20199;-66
2022/10/09 08:43:46;;;;;;;2.60;0.77;;;;;;;;;;5083284;28;20911;-65
2022/10/09 08:46:15;;;;;;;6.73;1.53;;;;;;;;;;5070318;28;20558;-64
2022/10/09 08:48:46;;;;;;;5.03;1.10;;;;;;;;;;5074148;28;20847;-65
2022/10/09 08:51:21;;;;;;;6.53;1.10;;;;;;;;;;5093955;28;20200;-65
2022/10/09 08:53:53;;;;;;;4.77;1.30;;;;;;;;;;5084619;28;20184;-65
2022/10/09 08:56:20;;;;;;;3.40;0.77;;;;;;;;;;5071328;28;20241;-65
2022/10/09 08:58:47;;;;;;;3.77;1.00;;;;;;;;;;5087830;28;20959;-64
2022/10/09 09:01:21;;;;;;;3.47;0.93;;;;;;;;;;5093709;28;20814;-64
2022/10/09 09:04:14;;;;;;;3.93;1.10;;;;;;;;;;5078354;28;20553;-67
2022/10/09 09:06:44;;;;;;;4.00;0.87;;;;;;;;;;5084566;28;20250;-65
2022/10/09 09:09:23;;;;;;;5.27;1.20;;;;;;;;;;5080953;28;20189;-66
2022/10/09 09:12:02;;;;;;;4.17;0.90;;;;;;;;;;5092845;28;20275;-64
2022/10/09 09:14:49;;;;;;;5.80;0.90;;;;;;;;;;5099578;28;20192;-66
2022/10/09 09:17:35;;;;;;;4.77;0.90;;;;;;;;;;5098193;28;20212;-66
2022/10/09 09:20:10;;;;;;;4.53;1.03;;;;;;;;;;5099308;28;20199;-66
2022/10/09 09:22:38;;;;;;;4.57;1.20;;;;;;;;;;5080634;28;20192;-66
2022/10/09 09:25:17;;;;;;;4.47;0.90;;;;;;;;;;5094331;28;20584;-63
2022/10/09 09:27:43;;;;;;;2.90;1.10;;;;;;;;;;5094918;28;20252;-64
2022/10/09 09:30:15;;;;;;;3.03;1.00;;;;;;;;;;5104846;28;20195;-61
2022/10/09 09:33:02;;;;;;;4.83;1.00;;;;;;;;;;5101654;28;20200;-61
2022/10/09 09:35:35;;;;;;;3.83;1.10;;;;;;;;;;5104988;28;20859;-63
2022/10/09 09:38:02;;;;;;;2.73;0.87;;;;;;;;;;5108534;28;20859;-63
2022/10/09 09:40:29;;;;;;;4.33;1.40;;;;;;;;;;5090968;28;20226;-63
2022/10/09 09:43:02;;;;;;;4.00;1.20;;;;;;;;;;5088556;28;20201;-64
2022/10/09 09:45:30;;;;;;;3.07;1.40;;;;;;;;;;5107970;28;20208;-63
2022/10/09 09:47:59;;;;;;;4.57;1.00;;;;;;;;;;5107332;28;20280;-63
2022/10/09 09:50:33;;;;;;;6.67;0.93;;;;;;;;;;5089028;28;20195;-63
2022/10/09 09:53:26;;;;;;;4.53;1.30;;;;;;;;;;5105864;28;20279;-63
2022/10/09 09:55:54;;;;;;;3.43;1.20;;;;;;;;;;5107679;28;20633;-64
2022/10/09 09:58:21;;;;;;;3.77;1.00;;;;;;;;;;5111602;28;20181;-63
2022/10/09 10:01:00;;;;;;;5.53;0.93;;;;;;;;;;5113453;28;20200;-62
2022/10/09 10:03:46;;;;;;;4.80;1.00;;;;;;;;;;5103735;28;20306;-62
2022/10/09 10:06:19;;;;;;;5.67;1.10;;;;;;;;;;5113310;28;20196;-62
2022/10/09 10:08:56;;;;;;;4.20;1.03;;;;;;;;;;5100169;28;20280;-63
2022/10/09 10:11:22;;;;;;;6.83;1.10;;;;;;;;;;5109978;28;20279;-62
2022/10/09 10:13:49;;;;;;;3.17;1.20;;;;;;;;;;5100909;28;20208;-63
2022/10/09 10:16:28;;;;;;;2.77;1.07;;;;;;;;;;5110762;28;20199;-63
2022/10/09 10:18:56;;;;;;;3.73;1.13;;;;;;;;;;5095614;28;20185;-62
2022/10/09 10:21:23;;;;;;;8.80;1.77;;;;;;;;;;5072060;28;20200;-63
2022/10/09 10:23:53;;;;;;;3.23;1.00;;;;;;;;;;5078909;28;20734;-64
2022/10/09 10:26:35;;;;;;;4.97;0.97;;;;;;;;;;5095182;28;20581;-63
2022/10/09 10:29:09;;;;;;;3.77;1.20;;;;;;;;;;5099290;28;20189;-64
2022/10/09 10:31:40;;;;;;;3.50;0.90;;;;;;;;;;5100358;28;20549;-64
2022/10/09 10:34:13;;;;;;;5.40;0.90;;;;;;;;;;5111882;28;20197;-62
2022/10/09 10:36:40;;;;;;;4.37;0.90;;;;;;;;;;5088613;28;20229;-64
2022/10/09 10:39:43;;;;;;;3.57;0.93;;;;;;;;;;5104719;28;20197;-62
2022/10/09 10:42:33;;;;;;;8.30;1.30;;;;;;;;;;5094241;28;20307;-63
2022/10/09 10:45:03;;;;;;;3.00;0.87;;;;;;;;;;5087771;28;20304;-62
2022/10/09 10:47:30;;;;;;;3.67;0.73;;;;;;;;;;5095510;28;20231;-63
2022/10/09 10:49:56;;;;;;;1.43;0.60;;;;;;;;;;5089786;28;20200;-63
2022/10/09 10:52:29;;;;;;;4.63;0.83;;;;;;;;;;5095493;28;20189;-63
2022/10/09 10:55:10;;;;;;;3.67;0.93;;;;;;;;;;5093042;28;20253;-62
2022/10/09 10:57:41;;;;;;;2.90;0.90;;;;;;;;;;5079463;28;20208;-62
2022/10/09 11:00:13;;;;;;;4.63;1.10;;;;;;;;;;5100713;28;20180;-64
2022/10/09 11:02:44;;;;;;;3.20;0.90;;;;;;;;;;5095925;28;20180;-64
2022/10/09 11:05:26;;;;;;;4.17;0.63;;;;;;;;;;5097136;28;20233;-65
2022/10/09 11:08:12;;;;;;;3.57;0.60;;;;;;;;;;5097006;28;21519;-64
2022/10/09 11:10:57;;;;;;;4.47;0.90;;;;;;;;;;5097450;28;20200;-63
2022/10/09 11:13:29;;;;;;;6.40;0.77;;;;;;;;;;5089884;28;20304;-64
2022/10/09 11:16:14;;;;;;;3.63;0.60;;;;;;;;;;5097600;28;20273;-64
2022/10/09 11:19:19;;;;;;;4.97;1.00;;;;;;;;;;5090728;28;20272;-64
2022/10/09 11:21:50;;;;;;;4.67;0.80;;;;;;;;;;5093449;28;20208;-64
2022/10/09 11:24:36;;;;;;;4.57;1.10;;;;;;;;;;5097186;28;20216;-63
2022/10/09 11:27:09;;;;;;;2.83;1.10;;;;;;;;;;5099925;28;20181;-64
2022/10/09 11:29:39;;;;;;;2.87;0.80;;;;;;;;;;5082682;28;20202;-64
2022/10/09 11:32:26;;;;;;;4.70;1.13;;;;;;;;;;5096781;28;20941;-63
2022/10/09 11:35:13;;;;;;;4.27;0.90;;;;;;;;;;5063671;28;20189;-63
2022/10/09 11:37:40;;;;;;;3.97;0.80;;;;;;;;;;5085250;28;20655;-63
2022/10/09 11:40:12;;;;;;;3.07;0.87;;;;;;;;;;5083700;28;20255;-63
2022/10/09 11:42:39;;;;;;;2.87;1.00;;;;;;;;;;5099123;28;20548;-64
2022/10/09 11:45:27;;;;;;;3.50;0.97;;;;;;;;;;5083876;28;20250;-64
2022/10/09 11:47:58;;;;;;;2.80;0.80;;;;;;;;;;5080662;28;20291;-65
2022/10/09 11:50:45;;;;;;;5.97;1.23;;;;;;;;;;5078760;28;20201;-65
2022/10/09 11:53:12;;;;;;;4.57;0.97;;;;;;;;;;5099352;28;20196;-65
2022/10/09 11:55:39;;;;;;;3.47;0.70;;;;;;;;;;5082472;28;20284;-64
2022/10/09 11:58:13;;;;;;;4.50;1.07;;;;;;;;;;5100512;28;20818;-64
2022/10/09 12:00:42;;;;;;;1.67;1.00;;;;;;;;;;5089049;28;20288;-65
2022/10/09 12:03:32;;;;;;;2.73;0.87;;;;;;;;;;5095489;28;20185;-64
2022/10/09 12:06:06;;;;;;;5.70;1.10;;;;;;;;;;5098179;28;20750;-64
2022/10/09 12:08:33;;;;;;;4.00;0.90;;;;;;;;;;5094853;28;20196;-63
2022/10/09 12:11:16;;;;;;;5.10;1.13;;;;;;;;;;5098176;28;20181;-64
2022/10/09 12:13:45;;;;;;;3.13;0.70;;;;;;;;;;5099327;28;20193;-63
2022/10/09 12:16:41;;;;;;;2.03;0.67;;;;;;;;;;5090162;28;20832;-64
2022/10/09 12:19:18;;;;;;;3.10;0.80;;;;;;;;;;5080301;28;21914;-64
2022/10/09 12:21:47;;;;;;;2.60;0.70;;;;;;;;;;5093750;28;20762;-64
2022/10/09 12:24:15;;;;;;;4.43;1.00;;;;;;;;;;5085014;28;20225;-65
2022/10/09 12:26:42;;;;;;;4.67;1.00;;;;;;;;;;5082454;28;20215;-65
2022/10/09 12:29:28;;;;;;;2.17;0.90;;;;;;;;;;5099005;28;20201;-64
2022/10/09 12:31:56;;;;;;;3.23;0.90;;;;;;;;;;5097944;28;20196;-64
2022/10/09 12:34:41;;;;;;;3.40;0.90;;;;;;;;;;5081452;28;20189;-65
2022/10/09 12:37:09;;;;;;;3.43;0.90;;;;;;;;;;5080262;28;20217;-64
2022/10/09 12:39:36;;;;;;;3.73;1.10;;;;;;;;;;5095890;28;20224;-65
2022/10/09 12:42:03;;;;;;;2.70;0.67;;;;;;;;;;5075993;28;21676;-65
2022/10/09 12:44:32;;;;;;;3.40;1.10;;;;;;;;;;5059003;28;20221;-64
2022/10/09 12:47:01;;;;;;;3.27;0.80;;;;;;;;;;5072052;28;20200;-64
2022/10/09 12:49:28;;;;;;;2.73;0.80;;;;;;;;;;5056700;28;20197;-64
2022/10/09 12:51:56;;;;;;;4.00;1.10;;;;;;;;;;5060679;28;20534;-66
2022/10/09 12:54:26;;;;;;;3.13;1.10;;;;;;;;;;5080500;28;20909;-63
2022/10/09 12:56:53;;;;;;;3.93;0.90;;;;;;;;;;5085462;28;20193;-63
2022/10/09 12:59:20;;;;;;;3.40;1.00;;;;;;;;;;5064596;28;20745;-64
2022/10/09 13:01:47;;;;;;;4.33;1.10;;;;;;;;;;5048906;28;20213;-64
2022/10/09 13:04:28;;;;;;;1.70;0.80;;;;;;;;;;5058179;28;20185;-63
2022/10/09 13:06:55;;;;;;;4.23;0.80;;;;;;;;;;5075284;28;20233;-64
2022/10/09 13:09:24;;;;;;;5.80;1.33;;;;;;;;;;5071844;28;20220;-63
2022/10/09 13:11:57;;;;;;;4.30;1.20;;;;;;;;;;5065664;28;20189;-64
2022/10/09 13:14:30;;;;;;;4.70;1.27;;;;;;;;;;5070998;28;20684;-64
2022/10/09 13:17:29;;;;;;;3.57;1.20;;;;;;;;;;5089043;28;20572;-64
2022/10/09 13:20:17;;;;;;;3.13;0.90;;;;;;;;;;5087232;28;20204;-64
2022/10/09 13:22:57;;;;;;;4.20;1.17;;;;;;;;;;5079782;28;20344;-64
2022/10/09 13:25:44;;;;;;;4.13;0.90;;;;;;;;;;5079756;28;20217;-64
2022/10/09 13:28:14;;;;;;;2.70;0.80;;;;;;;;;;5074583;28;20196;-64
2022/10/09 13:31:05;;;;;;;4.30;0.90;;;;;;;;;;5072914;28;20202;-64
2022/10/09 13:33:31;;;;;;;2.20;0.70;;;;;;;;;;5076545;28;20281;-64
2022/10/09 13:35:58;;;;;;;2.40;0.93;;;;;;;;;;5077024;28;20200;-64
2022/10/09 13:38:25;;;;;;;2.20;0.60;;;;;;;;;;5087152;28;20218;-64
2022/10/09 13:40:57;;;;;;;3.37;0.80;;;;;;;;;;5080100;28;20189;-65
2022/10/09 13:43:26;;;;;;;3.47;0.90;;;;;;;;;;5071849;28;20228;-65
2022/10/09 13:45:52;;;;;;;3.50;1.03;;;;;;;;;;5095640;28;20216;-65
2022/10/09 13:48:20;;;;;;;3.13;0.77;;;;;;;;;;5093146;28;20226;-63
2022/10/09 13:50:47;;;;;;;4.90;1.10;;;;;;;;;;5115137;28;20238;-64
2022/10/09 13:53:13;;;;;;;2.37;0.80;;;;;;;;;;5105383;28;20276;-64
2022/10/09 13:55:40;;;;;;;3.60;0.83;;;;;;;;;;5108071;28;20184;-65
2022/10/09 13:58:07;;;;;;;3.10;1.30;;;;;;;;;;5087217;28;20178;-64
2022/10/09 14:00:35;;;;;;;3.67;1.10;;;;;;;;;;5092910;28;20221;-64
2022/10/09 14:03:03;;;;;;;3.37;1.13;;;;;;;;;;5093563;28;20193;-63
2022/10/09 14:05:30;;;;;;;5.00;2.10;;;;;;;;;;5092630;28;20228;-64
2022/10/09 14:07:56;;;;;;;4.53;1.50;;;;;;;;;;5091866;28;20196;-64
2022/10/09 14:10:23;;;;;;;4.43;1.07;;;;;;;;;;5092950;28;20185;-64
2022/10/09 14:12:50;;;;;;;3.50;1.47;;;;;;;;;;5092621;28;20692;-63
2022/10/09 14:15:17;;;;;;;4.30;1.20;;;;;;;;;;5093103;28;20239;-64
2022/10/09 14:17:44;;;;;;;3.97;1.50;;;;;;;;;;5093029;28;20201;-63
2022/10/09 14:20:11;;;;;;;2.83;1.50;;;;;;;;;;5092806;28;20188;-63
2022/10/09 14:22:38;;;;;;;2.60;1.00;;;;;;;;;;5092105;28;20197;-64
2022/10/09 14:25:05;;;;;;;2.80;1.00;;;;;;;;;;5092611;28;20212;-63
2022/10/09 14:27:32;;;;;;;2.87;0.67;;;;;;;;;;5092787;28;20220;-64
2022/10/09 14:30:04;;;;;;;5.10;1.30;;;;;;;;;;5092849;28;20246;-65
2022/10/09 14:32:30;;;;;;;2.47;0.97;;;;;;;;;;5092781;28;20194;-64
2022/10/09 14:34:57;;;;;;;3.37;0.90;;;;;;;;;;5092522;28;20296;-64
2022/10/09 14:37:24;;;;;;;3.40;1.10;;;;;;;;;;5102513;28;20216;-64
2022/10/09 14:40:07;;;;;;;1.30;0.70;;;;;;;;;;5111231;28;20652;-65
2022/10/09 14:42:35;;;;;;;2.17;0.90;;;;;;;;;;5112334;28;20188;-64
2022/10/09 14:45:02;;;;;;;3.03;0.83;;;;;;;;;;5113088;28;20304;-64
2022/10/09 14:47:28;;;;;;;5.70;1.23;;;;;;;;;;5112417;28;20184;-64
2022/10/09 14:49:55;;;;;;;3.70;1.07;;;;;;;;;;5112634;28;20192;-64
2022/10/09 14:52:22;;;;;;;2.63;1.40;;;;;;;;;;5112434;28;20196;-64
2022/10/09 14:54:49;;;;;;;3.30;1.73;;;;;;;;;;5112502;28;20196;-64
2022/10/09 14:57:15;;;;;;;6.33;1.53;;;;;;;;;;5112673;28;20189;-64
2022/10/09 14:59:42;;;;;;;3.43;1.20;;;;;;;;;;5092488;28;20206;-64
2022/10/09 15:02:11;;;;;;;3.10;1.57;;;;;;;;;;5092036;28;20217;-64
2022/10/09 15:04:38;;;;;;;11.80;6.90;;;;;;;;;;5074196;28;20185;-64